EDW21PL LSZH-LGZA
Flight info
| Callsign | EDW21PL |
|---|---|
| Flight time | N/A |
| Altitude | 37000 |
| Route | VEBIT T53 GERSA Z50 RESIA DCT ADOSA DCT ANC DCT LATAN |
| Aircraft | A20N/M-SDE2E3FGHIRWXY/LB1 |
Departure
| Time | 2026-05-01 10:33 |
|---|---|
| Airport | Zürich Airport (LSZH) |
Arrival
| Time | N/A |
|---|---|
| Airport | Zakynthos International Airport Dionysios Solomos (LGZA) |
| Time | Latitude | Longitude | Altitude | Speed | Heading |
|---|---|---|---|---|---|
| 2026-05-01 10:07 | 47.45337 | 8.55944 | 1397 ft | 0 kts | 6° |
| 2026-05-01 10:21 | 47.45332 | 8.55943 | 1396 ft | 2 kts | 6° |
| 2026-05-01 10:21 | 47.45321 | 8.55941 | 1405 ft | 2 kts | 6° |
| 2026-05-01 10:22 | 47.45294 | 8.55937 | 1404 ft | 2 kts | 6° |
| 2026-05-01 10:22 | 47.45268 | 8.55933 | 1401 ft | 1 kts | 357° |
| 2026-05-01 10:23 | 47.45263 | 8.55933 | 1404 ft | 1 kts | 342° |
| 2026-05-01 10:23 | 47.45253 | 8.55940 | 1407 ft | 1 kts | 321° |
| 2026-05-01 10:23 | 47.45248 | 8.55946 | 1407 ft | 1 kts | 306° |
| 2026-05-01 10:24 | 47.45244 | 8.55954 | 1404 ft | 0 kts | 293° |
| 2026-05-01 10:25 | 47.45245 | 8.55950 | 1407 ft | 2 kts | 292° |
| 2026-05-01 10:26 | 47.45250 | 8.55918 | 1399 ft | 5 kts | 280° |
| 2026-05-01 10:26 | 47.45256 | 8.55847 | 1403 ft | 9 kts | 276° |
| 2026-05-01 10:26 | 47.45270 | 8.55646 | 1396 ft | 10 kts | 275° |
| 2026-05-01 10:27 | 47.45349 | 8.55525 | 1401 ft | 11 kts | 336° |
| 2026-05-01 10:27 | 47.45481 | 8.55436 | 1396 ft | 10 kts | 335° |
| 2026-05-01 10:28 | 47.45523 | 8.55478 | 1398 ft | 9 kts | 63° |
| 2026-05-01 10:28 | 47.45514 | 8.55663 | 1400 ft | 10 kts | 96° |
| 2026-05-01 10:28 | 47.45506 | 8.55778 | 1403 ft | 12 kts | 96° |
| 2026-05-01 10:29 | 47.45494 | 8.55944 | 1396 ft | 8 kts | 96° |
| 2026-05-01 10:29 | 47.45487 | 8.56045 | 1401 ft | 11 kts | 96° |
| 2026-05-01 10:30 | 47.45494 | 8.56244 | 1402 ft | 10 kts | 54° |
| 2026-05-01 10:30 | 47.45586 | 8.56415 | 1403 ft | 10 kts | 55° |
| 2026-05-01 10:31 | 47.45582 | 8.56650 | 1400 ft | 14 kts | 96° |
| 2026-05-01 10:31 | 47.45562 | 8.56924 | 1397 ft | 8 kts | 96° |
| 2026-05-01 10:32 | 47.45638 | 8.57024 | 1398 ft | 8 kts | 5° |
| 2026-05-01 10:32 | 47.45666 | 8.56982 | 1399 ft | 7 kts | 264° |
| 2026-05-01 10:32 | 47.45666 | 8.56951 | 1398 ft | 0 kts | 275° |
| 2026-05-01 10:33 | 47.45729 | 8.56121 | 1397 ft | 115 kts | 276° |
| 2026-05-01 10:33 | 47.45965 | 8.52909 | 2370 ft | 169 kts | 277° |
| 2026-05-01 10:34 | 47.46046 | 8.51727 | 2868 ft | 181 kts | 278° |
| 2026-05-01 10:34 | 47.46133 | 8.49728 | 3432 ft | 205 kts | 264° |
| 2026-05-01 10:34 | 47.45693 | 8.47647 | 4305 ft | 213 kts | 246° |
| 2026-05-01 10:35 | 47.44204 | 8.43807 | 6230 ft | 225 kts | 234° |
| 2026-05-01 10:35 | 47.43286 | 8.41869 | 7027 ft | 240 kts | 230° |
| 2026-05-01 10:35 | 47.42136 | 8.39958 | 7645 ft | 260 kts | 224° |
| 2026-05-01 10:35 | 47.40830 | 8.37894 | 8218 ft | 283 kts | 227° |
| 2026-05-01 10:36 | 47.38428 | 8.33151 | 10017 ft | 297 kts | 240° |
| 2026-05-01 10:36 | 47.37409 | 8.30408 | 10615 ft | 316 kts | 236° |
| 2026-05-01 10:36 | 47.35828 | 8.27993 | 10974 ft | 337 kts | 212° |
| 2026-05-01 10:37 | 47.33662 | 8.26624 | 11557 ft | 347 kts | 189° |
| 2026-05-01 10:37 | 47.28999 | 8.27816 | 13329 ft | 349 kts | 146° |
| 2026-05-01 10:37 | 47.27143 | 8.30092 | 14227 ft | 352 kts | 133° |
| 2026-05-01 10:38 | 47.25396 | 8.32642 | 15082 ft | 357 kts | 135° |
| 2026-05-01 10:38 | 47.23505 | 8.35057 | 15961 ft | 362 kts | 139° |
| 2026-05-01 10:38 | 47.21459 | 8.37282 | 16807 ft | 368 kts | 143° |
| 2026-05-01 10:38 | 47.19298 | 8.39384 | 17642 ft | 374 kts | 145° |
| 2026-05-01 10:39 | 47.17092 | 8.41412 | 18467 ft | 380 kts | 146° |
| 2026-05-01 10:39 | 47.14831 | 8.43445 | 19187 ft | 384 kts | 146° |
| 2026-05-01 10:39 | 47.12523 | 8.45511 | 19908 ft | 389 kts | 146° |
| 2026-05-01 10:39 | 47.10207 | 8.47587 | 20609 ft | 394 kts | 146° |
| 2026-05-01 10:40 | 47.07842 | 8.49708 | 21290 ft | 398 kts | 146° |
| 2026-05-01 10:40 | 47.05557 | 8.51999 | 21957 ft | 400 kts | 137° |
| 2026-05-01 10:40 | 47.03615 | 8.54863 | 22614 ft | 401 kts | 126° |
| 2026-05-01 10:40 | 47.02077 | 8.58258 | 23259 ft | 401 kts | 115° |
| 2026-05-01 10:41 | 47.00773 | 8.61916 | 23881 ft | 405 kts | 114° |
| 2026-05-01 10:41 | 46.99450 | 8.65609 | 24429 ft | 408 kts | 114° |
| 2026-05-01 10:41 | 46.96792 | 8.72952 | 25546 ft | 412 kts | 115° |
| 2026-05-01 10:42 | 46.95434 | 8.76685 | 26046 ft | 414 kts | 115° |
| 2026-05-01 10:42 | 46.94075 | 8.80413 | 26483 ft | 417 kts | 115° |
| 2026-05-01 10:42 | 46.92708 | 8.84158 | 26952 ft | 419 kts | 114° |
| 2026-05-01 10:42 | 46.91341 | 8.87897 | 27356 ft | 421 kts | 115° |
| 2026-05-01 10:43 | 46.89944 | 8.91711 | 27768 ft | 423 kts | 114° |
| 2026-05-01 10:43 | 46.88559 | 8.95491 | 28181 ft | 425 kts | 114° |
| 2026-05-01 10:43 | 46.87162 | 8.99298 | 28565 ft | 427 kts | 114° |
| 2026-05-01 10:43 | 46.85744 | 9.03159 | 28919 ft | 428 kts | 114° |
| 2026-05-01 10:44 | 46.84337 | 9.06982 | 29268 ft | 431 kts | 114° |
| 2026-05-01 10:44 | 46.82915 | 9.10840 | 29648 ft | 433 kts | 114° |
| 2026-05-01 10:44 | 46.81471 | 9.14754 | 30012 ft | 434 kts | 114° |
| 2026-05-01 10:44 | 46.80041 | 9.18622 | 30339 ft | 437 kts | 114° |
| 2026-05-01 10:45 | 46.78591 | 9.22540 | 30604 ft | 439 kts | 114° |
| 2026-05-01 10:45 | 46.77141 | 9.26454 | 30860 ft | 442 kts | 114° |
| 2026-05-01 10:45 | 46.75655 | 9.30458 | 31137 ft | 445 kts | 114° |
| 2026-05-01 10:45 | 46.74186 | 9.34409 | 31401 ft | 448 kts | 114° |
| 2026-05-01 10:46 | 46.72709 | 9.38376 | 31735 ft | 448 kts | 115° |
| 2026-05-01 10:46 | 46.71202 | 9.42417 | 32089 ft | 449 kts | 115° |
| 2026-05-01 10:46 | 46.69724 | 9.46374 | 32437 ft | 449 kts | 115° |
| 2026-05-01 10:46 | 46.68220 | 9.50398 | 32802 ft | 449 kts | 115° |
| 2026-05-01 10:47 | 46.66720 | 9.54401 | 33146 ft | 450 kts | 115° |
| 2026-05-01 10:47 | 46.65223 | 9.58394 | 33482 ft | 450 kts | 115° |
| 2026-05-01 10:47 | 46.63730 | 9.62367 | 33829 ft | 450 kts | 115° |
| 2026-05-01 10:47 | 46.62219 | 9.66384 | 34138 ft | 450 kts | 115° |
| 2026-05-01 10:48 | 46.60721 | 9.70364 | 34421 ft | 450 kts | 115° |
| 2026-05-01 10:48 | 46.59215 | 9.74355 | 34657 ft | 451 kts | 115° |
| 2026-05-01 10:48 | 46.57694 | 9.78382 | 34907 ft | 452 kts | 115° |
| 2026-05-01 10:48 | 46.56181 | 9.82378 | 35143 ft | 453 kts | 115° |
| 2026-05-01 10:49 | 46.54674 | 9.86354 | 35361 ft | 453 kts | 115° |
| 2026-05-01 10:49 | 46.53149 | 9.90366 | 35573 ft | 454 kts | 115° |
| 2026-05-01 10:49 | 46.51618 | 9.94394 | 35769 ft | 455 kts | 115° |
| 2026-05-01 10:49 | 46.50087 | 9.98404 | 35943 ft | 456 kts | 117° |
| 2026-05-01 10:50 | 46.48335 | 10.02287 | 36121 ft | 460 kts | 124° |
| 2026-05-01 10:50 | 46.46286 | 10.05835 | 36315 ft | 463 kts | 131° |
| 2026-05-01 10:50 | 46.43920 | 10.09075 | 36486 ft | 466 kts | 138° |
| 2026-05-01 10:50 | 46.41416 | 10.12041 | 36650 ft | 467 kts | 138° |
| 2026-05-01 10:51 | 46.38916 | 10.15023 | 36807 ft | 468 kts | 138° |
| 2026-05-01 10:51 | 46.36406 | 10.18026 | 36985 ft | 469 kts | 138° |
| 2026-05-01 10:51 | 46.33858 | 10.21075 | 37012 ft | 473 kts | 138° |
| 2026-05-01 10:52 | 46.28739 | 10.27189 | 37014 ft | 482 kts | 138° |
| 2026-05-01 10:52 | 46.23516 | 10.33406 | 37014 ft | 489 kts | 138° |
| 2026-05-01 10:53 | 46.18256 | 10.39650 | 37024 ft | 494 kts | 138° |
| 2026-05-01 10:53 | 46.12906 | 10.45984 | 37022 ft | 497 kts | 139° |
| 2026-05-01 10:54 | 46.07577 | 10.52278 | 37033 ft | 500 kts | 139° |
| 2026-05-01 10:54 | 46.02157 | 10.58663 | 37034 ft | 502 kts | 139° |
| 2026-05-01 10:55 | 45.96768 | 10.64994 | 37031 ft | 503 kts | 139° |
| 2026-05-01 10:55 | 45.91302 | 10.71400 | 37040 ft | 505 kts | 139° |
| 2026-05-01 10:56 | 45.85893 | 10.77723 | 37049 ft | 506 kts | 139° |
| 2026-05-01 10:56 | 45.80426 | 10.84097 | 37051 ft | 507 kts | 139° |
| 2026-05-01 10:57 | 45.74930 | 10.90489 | 37061 ft | 509 kts | 139° |
| 2026-05-01 10:57 | 45.69422 | 10.96876 | 37067 ft | 510 kts | 139° |
| 2026-05-01 10:58 | 45.63929 | 11.03232 | 37070 ft | 510 kts | 139° |
| 2026-05-01 10:58 | 45.58538 | 11.09860 | 37073 ft | 510 kts | 137° |
| 2026-05-01 10:59 | 45.53210 | 11.16570 | 37073 ft | 511 kts | 137° |
| 2026-05-01 10:59 | 45.47861 | 11.23229 | 37072 ft | 511 kts | 137° |
| 2026-05-01 11:00 | 45.42489 | 11.29870 | 37069 ft | 512 kts | 137° |
| 2026-05-01 11:00 | 45.37115 | 11.36489 | 37070 ft | 512 kts | 137° |
| 2026-05-01 11:01 | 45.31788 | 11.43034 | 37069 ft | 500 kts | 138° |
| 2026-05-01 11:01 | 45.26552 | 11.49452 | 37067 ft | 493 kts | 138° |
| 2026-05-01 11:02 | 45.21405 | 11.55746 | 37064 ft | 489 kts | 138° |
| 2026-05-01 11:02 | 45.16221 | 11.62070 | 37062 ft | 491 kts | 138° |
| 2026-05-01 11:03 | 45.11032 | 11.68385 | 37061 ft | 492 kts | 138° |
| 2026-05-01 11:03 | 45.05840 | 11.74687 | 37057 ft | 493 kts | 139° |
| 2026-05-01 11:04 | 45.00613 | 11.81014 | 37057 ft | 494 kts | 139° |
| 2026-05-01 11:04 | 44.95403 | 11.87306 | 37057 ft | 495 kts | 139° |
| 2026-05-01 11:05 | 44.90158 | 11.93623 | 37060 ft | 495 kts | 139° |
| 2026-05-01 11:05 | 44.84913 | 11.99925 | 37058 ft | 496 kts | 139° |
| 2026-05-01 11:06 | 44.79652 | 12.06232 | 37061 ft | 496 kts | 139° |
| 2026-05-01 11:06 | 44.74371 | 12.12545 | 37066 ft | 502 kts | 139° |
| 2026-05-01 11:07 | 44.66316 | 12.22146 | 37071 ft | 509 kts | 140° |
| 2026-05-01 11:07 | 44.60897 | 12.28584 | 37073 ft | 511 kts | 140° |
| 2026-05-01 11:08 | 44.55467 | 12.35020 | 37072 ft | 513 kts | 140° |
| 2026-05-01 11:09 | 44.47264 | 12.44709 | 37072 ft | 515 kts | 140° |
| 2026-05-01 11:09 | 44.41769 | 12.51181 | 37072 ft | 516 kts | 140° |
| 2026-05-01 11:10 | 44.33510 | 12.60875 | 37068 ft | 517 kts | 140° |
| 2026-05-01 11:10 | 44.27997 | 12.67326 | 37066 ft | 517 kts | 140° |
| 2026-05-01 11:11 | 44.22508 | 12.73733 | 37051 ft | 518 kts | 140° |
| 2026-05-01 11:11 | 44.16955 | 12.80198 | 37052 ft | 518 kts | 140° |
| 2026-05-01 11:12 | 44.11416 | 12.86630 | 37052 ft | 519 kts | 140° |
| 2026-05-01 11:12 | 44.05852 | 12.93074 | 37049 ft | 519 kts | 140° |
| 2026-05-01 11:13 | 44.00322 | 12.99464 | 37046 ft | 520 kts | 140° |
| 2026-05-01 11:13 | 43.94763 | 13.05870 | 37042 ft | 520 kts | 140° |
| 2026-05-01 11:14 | 43.90107 | 13.11224 | 37037 ft | 521 kts | 140° |
| 2026-05-01 11:14 | 43.84518 | 13.17634 | 37032 ft | 521 kts | 140° |
| 2026-05-01 11:15 | 43.78911 | 13.24050 | 37028 ft | 522 kts | 140° |
| 2026-05-01 11:15 | 43.73324 | 13.30426 | 37024 ft | 522 kts | 140° |
| 2026-05-01 11:16 | 43.67701 | 13.36829 | 37023 ft | 523 kts | 140° |
| 2026-05-01 11:16 | 43.62096 | 13.43198 | 37024 ft | 523 kts | 140° |
| 2026-05-01 11:17 | 43.56643 | 13.49869 | 37025 ft | 523 kts | 134° |
| 2026-05-01 11:17 | 43.51594 | 13.57045 | 37023 ft | 524 kts | 133° |
| 2026-05-01 11:18 | 43.46514 | 13.64269 | 37026 ft | 524 kts | 134° |
| 2026-05-01 11:18 | 43.46174 | 13.64751 | 37022 ft | 524 kts | 134° |
| 2026-05-01 11:19 | 43.44135 | 13.67639 | 37079 ft | 516 kts | 134° |
| 2026-05-01 11:19 | 43.41650 | 13.71164 | 37065 ft | 485 kts | 133° |
| 2026-05-01 11:19 | 43.39310 | 13.74489 | 36824 ft | 492 kts | 134° |
| 2026-05-01 11:20 | 43.36910 | 13.77867 | 37025 ft | 493 kts | 134° |
| 2026-05-01 11:20 | 43.34501 | 13.81247 | 37020 ft | 497 kts | 134° |
| 2026-05-01 11:20 | 43.29602 | 13.88114 | 37020 ft | 506 kts | 134° |
| 2026-05-01 11:21 | 43.25024 | 13.94522 | 37019 ft | 512 kts | 134° |
| 2026-05-01 11:22 | 43.23700 | 13.96373 | 37023 ft | 512 kts | 134° |
| 2026-05-01 11:22 | 43.18705 | 14.03344 | 37019 ft | 516 kts | 134° |
| 2026-05-01 11:23 | 43.13628 | 14.10413 | 37014 ft | 519 kts | 134° |
| 2026-05-01 11:23 | 43.08571 | 14.17436 | 37011 ft | 521 kts | 135° |
| 2026-05-01 11:24 | 43.03678 | 14.24214 | 37007 ft | 522 kts | 135° |
| 2026-05-01 11:25 | 42.99752 | 14.29641 | 37004 ft | 522 kts | 135° |
| 2026-05-01 11:26 | 42.92114 | 14.40171 | 37001 ft | 522 kts | 135° |
| 2026-05-01 11:27 | 42.86973 | 14.47234 | 36990 ft | 523 kts | 135° |
| 2026-05-01 11:27 | 42.82754 | 14.53020 | 36996 ft | 523 kts | 135° |
| 2026-05-01 11:28 | 42.79102 | 14.58016 | 36991 ft | 522 kts | 135° |